Inukjuak Airport
CYPH : now visible

Airfield :











YOU CAN JOIN US ON...

 
LOGIN :

Register | Disclaimer

   EN    FR    IT 

 









Legend :    VFR   Marginal VFR   IFR   Intensive IFR   Very Intensive IFR
Visi :
Ceiling :
>= 8 km
>= 3000ft
5 to 8 km
1000 to 3000 ft
1500m to 5 km
500 to 1000 ft
800 to 1500m
200 to 500 ft
< 800m
< 200 ft
Symbols :   Thunderstorms  Fog  Heavy snow  Heavy precipitations  Wind > 20 kt






- Airport Elevation : 83 ft
- IATA code : YPH


CYPH - Inukjuak

CURRENT METAR :
  • 291500Z AUTO 21012KT 5/8SM -SN OVC004 M20/M22 A3021 RMK SLP234

EXPIRED METARs :
  • 291443Z AUTO 21011KT 3/8SM SN VV004 M20/M22 A3020 RMK SLP233
  • 291440Z AUTO 22011KT 3/8SM SN VV003 M20/M22 A3020 RMK SLP233
  • 291408Z AUTO 22012KT 1SM -SN OVC003 M20/M22 A3021 RMK SLP234
  • 291358Z AUTO 22012KT 5SM BR OVC003 M20/M22 A3021 RMK PRESFR SLP235
  • 291327Z AUTO 21006KT 6SM BR OVC003 M20/M22 A3023 RMK SLP241
  • 291312Z AUTO 20008KT 9SM -SN OVC003 M20/M22 A3023 RMK SLP241
  • 291300Z AUTO 21006KT 9SM OVC005 M21/M23 A3023 RMK SLP243
  • 291236Z AUTO 20009KT 9SM -SN OVC007 M20/M22 A3023 RMK SLP244

TAF AMD TAF CYPH
Valid from the 29 at 14:00 until the 30 at 00:00 UTC


291447Z 2914/2924 21015KT P6SM SCT003
TEMPO 2914/2920 3/4SM -SN BKN003
FM292000 21020KT 3SM -SN BKN007 OVC010
FM292200 21025KT 21/2SM -SN OVC007 RMK FCST BASED ON AUTO OBS. NXT FCST BY 291800Z



MET'MAP, your aeronautical weather chart ! - Copyright ORBIFLY December 2007 - Disclaimer

ORBIFLY MET'MAP TEAM :

Programming & Development : Alexandra Zaïnal
Concept & original design : Baudouin d'Aumeries
Assistance for programming : Marc-Olivier Méhu
Technical & hardware support : Manuel Goepfert

Contact : metmap@orbifly.com




SOURCES & CREDITS :

   NOAA       Earth
Advisory